Time,TemperatureF,DewpointF,PressureIn,WindDirection,WindDirectionDegrees,WindSpeedMPH,WindSpeedGustMPH,Humidity,HourlyPrecipIn,Conditions,Clouds,dailyrainin,SoftwareType,DateUTC
2013-09-09 00:04:00,63.9,55.8,29.90,SE,135,0.0,0.0,75,0.00,OVC,,0.00,WeatherDisplay:10.37,2013-09-09 05:04:00,
2013-09-09 00:09:00,63.9,55.8,29.90,SE,135,0.0,0.0,75,0.00,OVC,,0.00,WeatherDisplay:10.37,2013-09-09 05:09:00,
2013-09-09 00:14:00,64.0,55.9,29.90,SSE,158,1.6,2.3,75,0.00,OVC,,0.00,WeatherDisplay:10.37,2013-09-09 05:14:00,
2013-09-09 00:19:00,64.0,55.9,29.90,SSE,158,0.0,0.0,75,0.00,OVC,,0.00,WeatherDisplay:10.37,2013-09-09 05:19:00,
2013-09-09 00:24:00,64.0,56.3,29.90,ESE,112,0.0,0.0,76,0.00,OVC,,0.00,WeatherDisplay:10.37,2013-09-09 05:24:00,
2013-09-09 00:29:00,64.0,56.3,29.90,East,90,1.9,2.3,76,0.00,OVC,,0.00,WeatherDisplay:10.37,2013-09-09 05:29:00,
2013-09-09 00:34:00,64.2,56.5,29.90,ESE,112,0.7,2.7,76,0.00,OVC,,0.00,WeatherDisplay:10.37,2013-09-09 05:34:00,
2013-09-09 00:39:00,64.4,56.7,29.89,SE,135,0.9,2.2,76,0.00,OVC,,0.00,WeatherDisplay:10.37,2013-09-09 05:39:00,
2013-09-09 00:44:00,64.4,56.7,29.89,ESE,112,1.8,2.3,76,0.00,OVC,,0.00,WeatherDisplay:10.37,2013-09-09 05:44:00,
2013-09-09 00:49:00,64.6,56.9,29.89,ENE,68,0.3,1.1,76,0.00,OVC,,0.00,WeatherDisplay:10.37,2013-09-09 05:49:00,
2013-09-09 00:54:00,64.6,56.9,29.89,ESE,112,0.0,0.0,76,0.00,OVC,,0.00,WeatherDisplay:10.37,2013-09-09 05:54:00,
2013-09-09 00:59:00,64.8,57.1,29.89,SE,135,0.0,0.0,76,0.00,OVC,,0.00,WeatherDisplay:10.37,2013-09-09 05:59:00,
2013-09-09 01:04:00,64.8,57.1,29.89,SSE,158,0.0,0.0,76,0.00,OVC,,0.00,WeatherDisplay:10.37,2013-09-09 06:04:00,
2013-09-09 01:09:00,64.9,57.2,29.89,ESE,112,0.0,0.0,76,0.00,OVC,,0.00,WeatherDisplay:10.37,2013-09-09 06:09:00,
2013-09-09 01:14:00,64.9,57.2,29.88,ESE,112,0.0,0.0,76,0.00,OVC,,0.00,WeatherDisplay:10.37,2013-09-09 06:14:00,
2013-09-09 01:19:00,64.9,57.5,29.88,SE,135,0.0,0.0,77,0.00,OVC,,0.00,WeatherDisplay:10.37,2013-09-09 06:19:00,
2013-09-09 01:24:00,64.9,57.5,29.88,ESE,112,0.0,0.0,77,0.00,OVC,,0.00,WeatherDisplay:10.37,2013-09-09 06:24:00,
2013-09-09 01:29:00,65.1,57.7,29.88,ESE,112,0.0,0.0,77,0.00,OVC,,0.00,WeatherDisplay:10.37,2013-09-09 06:29:00,
2013-09-09 01:34:00,65.1,57.7,29.88,ESE,112,0.0,0.0,77,0.00,OVC,,0.00,WeatherDisplay:10.37,2013-09-09 06:34:00,
2013-09-09 01:39:00,65.3,57.9,29.88,ESE,112,0.0,0.0,77,0.00,OVC,,0.00,WeatherDisplay:10.37,2013-09-09 06:39:00,
2013-09-09 01:44:00,65.3,57.9,29.88,SE,135,0.0,0.0,77,0.00,OVC,,0.00,WeatherDisplay:10.37,2013-09-09 06:44:00,
2013-09-09 01:49:00,65.3,57.9,29.88,SE,135,0.0,0.0,77,0.00,OVC,,0.00,WeatherDisplay:10.37,2013-09-09 06:49:00,
2013-09-09 01:54:00,65.5,58.1,29.88,SSW,202,0.0,0.0,77,0.00,OVC,,0.00,WeatherDisplay:10.37,2013-09-09 06:54:00,
2013-09-09 01:59:00,65.5,58.1,29.88,ESE,112,0.0,0.0,77,0.00,OVC,,0.00,WeatherDisplay:10.37,2013-09-09 06:59:00,
2013-09-09 02:04:00,65.5,58.1,29.88,East,90,0.0,0.0,77,0.00,OVC,,0.00,WeatherDisplay:10.37,2013-09-09 07:04:00,
2013-09-09 02:09:00,65.5,58.1,29.88,East,90,0.0,0.0,77,0.00,OVC,,0.00,WeatherDisplay:10.37,2013-09-09 07:09:00,
2013-09-09 02:14:00,65.5,58.1,29.88,East,90,0.0,0.0,77,0.00,OVC,,0.00,WeatherDisplay:10.37,2013-09-09 07:14:00,
2013-09-09 02:19:00,65.5,58.5,29.88,SE,135,0.0,0.0,78,0.00,OVC,,0.00,WeatherDisplay:10.37,2013-09-09 07:19:00,
2013-09-09 02:24:00,65.7,58.7,29.87,SE,135,0.0,0.0,78,0.00,OVC,,0.00,WeatherDisplay:10.37,2013-09-09 07:24:00,
2013-09-09 02:29:00,65.8,59.1,29.87,ESE,112,1.3,2.3,79,0.00,OVC,,0.00,WeatherDisplay:10.37,2013-09-09 07:29:00,
2013-09-09 02:34:00,66.0,59.3,29.87,SSE,158,0.0,0.0,79,0.00,OVC,,0.00,WeatherDisplay:10.37,2013-09-09 07:34:00,
2013-09-09 02:39:00,66.2,60.2,29.86,ESE,112,0.0,0.0,81,0.00,OVC,,0.00,WeatherDisplay:10.37,2013-09-09 07:39:00,
2013-09-09 02:44:00,66.7,61.4,29.86,ESE,112,0.0,0.0,83,0.00,OVC,,0.00,WeatherDisplay:10.37,2013-09-09 07:44:00,
2013-09-09 02:49:00,67.1,61.8,29.86,ESE,112,0.0,0.0,83,0.00,OVC,,0.00,WeatherDisplay:10.37,2013-09-09 07:49:00,
2013-09-09 02:54:00,67.1,61.8,29.86,SSE,158,0.0,0.0,83,0.00,OVC,,0.00,WeatherDisplay:10.37,2013-09-09 07:54:00,
2013-09-09 02:59:00,67.3,62.3,29.86,SSE,158,0.0,0.0,84,0.00,OVC,,0.00,WeatherDisplay:10.37,2013-09-09 07:59:00,
2013-09-09 03:04:00,67.5,62.5,29.86,SE,135,0.0,0.0,84,0.00,OVC,,0.00,WeatherDisplay:10.37,2013-09-09 08:04:00,
2013-09-09 03:09:00,67.5,62.8,29.86,ESE,112,0.0,0.0,85,0.00,OVC,,0.00,WeatherDisplay:10.37,2013-09-09 08:09:00,
2013-09-09 03:14:00,67.5,62.8,29.85,SE,135,0.0,0.0,85,0.00,OVC,,0.00,WeatherDisplay:10.37,2013-09-09 08:14:00,
2013-09-09 03:19:00,67.5,62.8,29.85,South,180,0.0,0.0,85,0.00,OVC,,0.00,WeatherDisplay:10.37,2013-09-09 08:19:00,
2013-09-09 03:24:00,67.5,62.8,29.85,SE,135,0.0,0.0,85,0.00,OVC,,0.00,WeatherDisplay:10.37,2013-09-09 08:24:00,
2013-09-09 03:29:00,67.5,62.8,29.85,SE,135,0.0,0.0,85,0.00,OVC,,0.00,WeatherDisplay:10.37,2013-09-09 08:29:00,
2013-09-09 03:34:00,67.5,62.8,29.85,ESE,112,0.0,0.0,85,0.00,OVC,,0.00,WeatherDisplay:10.37,2013-09-09 08:34:00,
2013-09-09 03:39:00,67.5,62.8,29.84,SE,135,0.0,0.0,85,0.00,OVC,,0.00,WeatherDisplay:10.37,2013-09-09 08:39:00,
2013-09-09 03:44:00,67.5,62.8,29.84,East,90,1.8,2.3,85,0.00,OVC,,0.00,WeatherDisplay:10.37,2013-09-09 08:44:00,
2013-09-09 03:49:00,67.5,62.8,29.83,ESE,112,1.8,3.5,85,0.00,OVC,,0.00,WeatherDisplay:10.37,2013-09-09 08:49:00,
2013-09-09 03:54:00,67.6,62.9,29.83,SE,135,0.0,0.0,85,0.00,OVC,,0.00,WeatherDisplay:10.37,2013-09-09 08:54:00,
2013-09-09 03:59:00,67.6,62.9,29.83,SE,135,2.4,2.7,85,0.00,OVC,,0.00,WeatherDisplay:10.37,2013-09-09 08:59:00,
2013-09-09 04:04:00,67.6,62.9,29.83,ESE,112,2.7,2.7,85,0.00,OVC,,0.00,WeatherDisplay:10.37,2013-09-09 09:04:00,
2013-09-09 04:09:00,67.6,62.9,29.83,SE,135,2.5,3.5,85,0.00,OVC,,0.00,WeatherDisplay:10.37,2013-09-09 09:09:00,
2013-09-09 04:14:00,67.6,62.9,29.83,SE,135,2.5,2.7,85,0.00,OVC,,0.00,WeatherDisplay:10.37,2013-09-09 09:14:00,
2013-09-09 04:19:00,67.6,62.9,29.83,ESE,112,2.6,2.7,85,0.00,OVC,,0.00,WeatherDisplay:10.37,2013-09-09 09:19:00,
2013-09-09 04:24:00,67.6,62.9,29.83,ESE,112,2.5,2.7,85,0.00,OVC,,0.00,WeatherDisplay:10.37,2013-09-09 09:24:00,
2013-09-09 04:29:00,67.6,62.9,29.83,SE,135,2.1,2.3,85,0.00,OVC,,0.00,WeatherDisplay:10.37,2013-09-09 09:29:00,
2013-09-09 04:34:00,67.6,62.9,29.83,ESE,112,1.2,2.3,85,0.00,OVC,,0.00,WeatherDisplay:10.37,2013-09-09 09:34:00,
2013-09-09 04:39:00,67.6,62.9,29.82,ESE,112,2.4,2.7,85,0.00,OVC,,0.00,WeatherDisplay:10.37,2013-09-09 09:39:00,
2013-09-09 04:44:00,67.5,62.8,29.82,ESE,112,0.0,0.0,85,0.00,OVC,,0.00,WeatherDisplay:10.37,2013-09-09 09:44:00,
2013-09-09 04:49:00,67.5,62.8,29.82,ESE,112,0.0,0.0,85,0.00,OVC,,0.00,WeatherDisplay:10.37,2013-09-09 09:49:00,
2013-09-09 04:54:00,67.5,62.8,29.82,East,90,1.5,2.7,85,0.00,OVC,,0.00,WeatherDisplay:10.37,2013-09-09 09:54:00,
2013-09-09 04:59:00,67.5,62.8,29.82,East,90,0.3,1.2,85,0.00,OVC,,0.00,WeatherDisplay:10.37,2013-09-09 09:59:00,
2013-09-09 05:04:00,67.5,62.8,29.81,SE,135,0.5,2.3,85,0.00,OVC,,0.00,WeatherDisplay:10.37,2013-09-09 10:04:00,
2013-09-09 05:09:00,67.5,62.8,29.81,SE,135,1.5,2.3,85,0.00,OVC,,0.00,WeatherDisplay:10.37,2013-09-09 10:09:00,
2013-09-09 05:14:00,67.5,62.8,29.81,SE,135,0.0,0.0,85,0.00,OVC,,0.00,WeatherDisplay:10.37,2013-09-09 10:14:00,
2013-09-09 05:19:00,67.5,62.8,29.81,SE,135,0.0,0.0,85,0.00,OVC,,0.00,WeatherDisplay:10.37,2013-09-09 10:19:00,
2013-09-09 05:24:00,67.5,62.8,29.82,North,360,0.0,0.0,85,0.00,OVC,,0.00,WeatherDisplay:10.37,2013-09-09 10:24:00,
2013-09-09 05:29:00,67.5,62.8,29.82,North,360,0.0,0.0,85,0.00,OVC,,0.00,WeatherDisplay:10.37,2013-09-09 10:29:00,
2013-09-09 05:34:00,67.5,62.8,29.82,SE,135,0.0,0.0,85,0.00,OVC,,0.00,WeatherDisplay:10.37,2013-09-09 10:34:00,
2013-09-09 05:39:00,67.5,62.8,29.82,South,180,0.0,0.0,85,0.00,OVC,,0.00,WeatherDisplay:10.37,2013-09-09 10:39:00,
2013-09-09 05:44:00,67.5,62.8,29.82,SSE,158,0.0,0.0,85,0.00,OVC,,0.00,WeatherDisplay:10.37,2013-09-09 10:44:00,
2013-09-09 05:49:00,67.5,62.8,29.82,ESE,112,0.0,0.0,85,0.00,OVC,,0.00,WeatherDisplay:10.37,2013-09-09 10:49:00,
2013-09-09 05:54:00,67.5,62.8,29.82,SE,135,0.0,0.0,85,0.00,OVC,,0.00,WeatherDisplay:10.37,2013-09-09 10:54:00,
2013-09-09 05:59:00,67.5,62.8,29.82,East,90,0.0,0.0,85,0.00,OVC,,0.00,WeatherDisplay:10.37,2013-09-09 10:59:00,
2013-09-09 06:04:00,67.6,62.9,29.83,SSW,202,0.0,0.0,85,0.00,OVC,,0.00,WeatherDisplay:10.37,2013-09-09 11:04:00,
2013-09-09 06:09:00,67.6,62.9,29.83,South,180,0.0,0.0,85,0.00,OVC,,0.00,WeatherDisplay:10.37,2013-09-09 11:09:00,
2013-09-09 06:14:00,67.6,62.9,29.83,SE,135,0.0,0.0,85,0.00,OVC,,0.00,WeatherDisplay:10.37,2013-09-09 11:14:00,
2013-09-09 06:19:00,67.6,62.9,29.83,SE,135,0.0,0.0,85,0.00,OVC,,0.00,WeatherDisplay:10.37,2013-09-09 11:19:00,
2013-09-09 06:24:00,67.6,62.9,29.81,SSE,158,0.0,0.0,85,0.00,OVC,,0.00,WeatherDisplay:10.37,2013-09-09 11:24:00,
2013-09-09 06:29:00,68.0,63.3,29.81,SE,135,0.0,0.0,85,0.00,OVC,,0.00,WeatherDisplay:10.37,2013-09-09 11:29:00,
2013-09-09 06:34:00,68.0,63.3,29.81,SE,135,0.0,0.0,85,0.00,OVC,,0.00,WeatherDisplay:10.37,2013-09-09 11:34:00,
2013-09-09 06:39:00,68.2,63.5,29.80,West,270,0.0,0.0,85,0.00,OVC,,0.00,WeatherDisplay:10.37,2013-09-09 11:39:00,
2013-09-09 06:44:00,68.2,63.5,29.80,SE,135,0.0,0.0,85,0.00,OVC,,0.00,WeatherDisplay:10.37,2013-09-09 11:44:00,
2013-09-09 06:49:00,68.2,63.9,29.83,South,180,0.0,0.0,86,0.01,RA,,0.01,WeatherDisplay:10.37,2013-09-09 11:49:00,
2013-09-09 06:54:00,68.0,63.7,29.83,ESE,112,0.0,0.0,86,0.02,RA,,0.02,WeatherDisplay:10.37,2013-09-09 11:54:00,
2013-09-09 06:59:00,67.8,63.8,29.83,SE,135,0.0,0.0,87,0.03,RA,,0.03,WeatherDisplay:10.37,2013-09-09 11:59:00,
2013-09-09 07:04:00,67.8,64.1,29.81,ESE,112,0.0,0.0,88,0.03,RA,,0.03,WeatherDisplay:10.37,2013-09-09 12:04:00,
2013-09-09 07:09:00,67.6,64.6,29.81,ESE,112,3.4,4.2,90,0.03,OVC,,0.03,WeatherDisplay:10.37,2013-09-09 12:09:00,
2013-09-09 07:14:00,67.5,65.1,29.77,ESE,112,4.3,5.8,92,0.04,RA,,0.04,WeatherDisplay:10.37,2013-09-09 12:14:00,
2013-09-09 07:19:00,67.5,65.4,29.77,ESE,112,3.0,3.5,93,0.05,RA,,0.05,WeatherDisplay:10.37,2013-09-09 12:19:00,
2013-09-09 07:24:00,67.5,65.4,29.75,SE,135,5.4,5.8,93,0.05,RA,,0.05,WeatherDisplay:10.37,2013-09-09 12:24:00,
2013-09-09 07:29:00,67.5,65.4,29.75,SSE,158,4.7,5.8,93,0.05,OVC,,0.05,WeatherDisplay:10.37,2013-09-09 12:29:00,
2013-09-09 07:34:00,67.5,65.7,29.75,NE,45,4.1,4.6,94,0.05,OVC,,0.05,WeatherDisplay:10.37,2013-09-09 12:34:00,
2013-09-09 07:39:00,67.5,65.7,29.74,ESE,112,3.8,4.6,94,0.05,OVC,,0.05,WeatherDisplay:10.37,2013-09-09 12:39:00,
2013-09-09 07:44:00,67.5,65.7,29.74,SE,135,3.1,3.5,94,0.05,OVC,,0.05,WeatherDisplay:10.37,2013-09-09 12:44:00,
2013-09-09 07:49:00,67.6,65.8,29.74,ESE,112,3.0,4.6,94,0.04,OVC,,0.05,WeatherDisplay:10.37,2013-09-09 12:49:00,
2013-09-09 07:54:00,67.6,65.8,29.74,SE,135,2.2,2.3,94,0.03,OVC,,0.05,WeatherDisplay:10.37,2013-09-09 12:54:00,
2013-09-09 07:59:00,67.8,66.0,29.74,ESE,112,2.0,2.7,94,0.02,OVC,,0.05,WeatherDisplay:10.37,2013-09-09 12:59:00,
2013-09-09 08:04:00,68.0,66.2,29.75,SSE,158,2.7,3.5,94,0.02,OVC,,0.05,WeatherDisplay:10.37,2013-09-09 13:04:00,
2013-09-09 08:09:00,68.0,66.2,29.75,SSE,158,1.5,2.3,94,0.02,OVC,,0.05,WeatherDisplay:10.37,2013-09-09 13:09:00,
2013-09-09 08:14:00,68.2,66.4,29.76,North,360,0.0,0.0,94,0.01,-RA,,0.05,WeatherDisplay:10.37,2013-09-09 13:14:00,
2013-09-09 08:19:00,68.2,66.4,29.76,East,90,1.1,1.7,94,0.00,-RA,,0.05,WeatherDisplay:10.37,2013-09-09 13:19:00,
2013-09-09 08:24:00,68.4,66.6,29.76,SSW,202,0.0,0.0,94,0.00,-RA,,0.05,WeatherDisplay:10.37,2013-09-09 13:24:00,
2013-09-09 08:29:00,68.4,66.6,29.76,ESE,112,2.5,2.5,94,0.00,-RA,,0.05,WeatherDisplay:10.37,2013-09-09 13:29:00,
2013-09-09 08:34:00,68.5,66.7,29.76,SSE,158,2.6,3.5,94,0.00,OVC,,0.05,WeatherDisplay:10.37,2013-09-09 13:34:00,
2013-09-09 08:39:00,68.7,66.9,29.75,South,180,1.2,2.3,94,0.00,OVC,,0.05,WeatherDisplay:10.37,2013-09-09 13:39:00,
2013-09-09 08:44:00,68.9,67.1,29.75,SSE,158,0.0,0.0,94,0.00,OVC,,0.05,WeatherDisplay:10.37,2013-09-09 13:44:00,
2013-09-09 08:49:00,68.9,67.1,29.77,SE,135,0.0,0.0,94,0.00,OVC,,0.05,WeatherDisplay:10.37,2013-09-09 13:49:00,
2013-09-09 08:54:00,69.3,67.5,29.77,ESE,112,0.0,0.0,94,0.00,OVC,,0.05,WeatherDisplay:10.37,2013-09-09 13:54:00,
2013-09-09 08:59:00,69.3,67.5,29.77,ESE,112,0.0,0.0,94,0.00,OVC,,0.05,WeatherDisplay:10.37,2013-09-09 13:59:00,
2013-09-09 09:04:00,69.4,67.6,29.77,SSE,158,0.8,1.2,94,0.00,OVC,,0.05,WeatherDisplay:10.37,2013-09-09 14:04:00,
2013-09-09 09:09:00,69.8,68.0,29.77,SSE,158,0.0,0.0,94,0.00,OVC,,0.05,WeatherDisplay:10.37,2013-09-09 14:09:00,
2013-09-09 09:14:00,70.0,67.9,29.77,SE,135,0.0,0.0,93,0.00,OVC,,0.05,WeatherDisplay:10.37,2013-09-09 14:14:00,
2013-09-09 09:19:00,70.2,68.1,29.77,South,180,0.0,0.0,93,0.00,OVC,,0.05,WeatherDisplay:10.37,2013-09-09 14:19:00,
2013-09-09 09:24:00,70.2,68.1,29.76,SSE,158,0.0,0.0,93,0.00,OVC,,0.05,WeatherDisplay:10.37,2013-09-09 14:24:00,
2013-09-09 09:29:00,70.3,68.2,29.76,South,180,0.0,0.0,93,0.00,OVC,,0.05,WeatherDisplay:10.37,2013-09-09 14:29:00,
2013-09-09 09:34:00,70.3,68.2,29.76,South,180,1.3,2.3,93,0.00,OVC,,0.05,WeatherDisplay:10.37,2013-09-09 14:34:00,
2013-09-09 09:39:00,70.3,67.9,29.77,SE,135,0.0,1.2,92,0.00,OVC,,0.05,WeatherDisplay:10.37,2013-09-09 14:39:00,
2013-09-09 09:44:00,70.3,67.9,29.77,SE,135,0.4,2.3,92,0.00,OVC,,0.05,WeatherDisplay:10.37,2013-09-09 14:44:00,
2013-09-09 09:49:00,70.7,68.3,29.76,SE,135,1.0,1.7,92,0.00,OVC,,0.05,WeatherDisplay:10.37,2013-09-09 14:49:00,
2013-09-09 09:54:00,70.9,68.5,29.76,SE,135,0.0,0.0,92,0.00,OVC,,0.05,WeatherDisplay:10.37,2013-09-09 14:54:00,
2013-09-09 09:59:00,71.1,68.7,29.76,ESE,112,1.7,1.7,92,0.00,OVC,,0.05,WeatherDisplay:10.37,2013-09-09 14:59:00,
2013-09-09 10:04:00,71.1,68.7,29.76,SE,135,1.9,2.7,92,0.00,OVC,,0.05,WeatherDisplay:10.37,2013-09-09 15:04:00,
2013-09-09 10:09:00,71.2,68.4,29.76,SE,135,1.8,2.3,91,0.00,OVC,,0.05,WeatherDisplay:10.37,2013-09-09 15:09:00,
2013-09-09 10:14:00,71.4,68.6,29.75,SSE,158,2.3,2.3,91,0.00,OVC,,0.05,WeatherDisplay:10.37,2013-09-09 15:14:00,
2013-09-09 10:19:00,71.4,68.6,29.75,SE,135,0.0,0.0,91,0.00,OVC,,0.05,WeatherDisplay:10.37,2013-09-09 15:19:00,
2013-09-09 10:24:00,71.4,68.6,29.75,SSE,158,2.1,2.3,91,0.00,OVC,,0.05,WeatherDisplay:10.37,2013-09-09 15:24:00,
2013-09-09 10:29:00,71.6,68.8,29.75,SSE,158,2.4,3.5,91,0.00,OVC,,0.05,WeatherDisplay:10.37,2013-09-09 15:29:00,
2013-09-09 10:34:00,71.6,68.8,29.75,SE,135,2.7,3.5,91,0.00,OVC,,0.05,WeatherDisplay:10.37,2013-09-09 15:34:00,
2013-09-09 10:39:00,71.6,68.5,29.74,ESE,112,2.7,3.5,90,0.00,OVC,,0.05,WeatherDisplay:10.37,2013-09-09 15:39:00,
2013-09-09 10:44:00,71.6,68.5,29.74,ESE,112,3.3,3.5,90,0.00,OVC,,0.05,WeatherDisplay:10.37,2013-09-09 15:44:00,
2013-09-09 10:49:00,71.8,68.7,29.74,ESE,112,2.6,3.5,90,0.00,OVC,,0.05,WeatherDisplay:10.37,2013-09-09 15:49:00,
2013-09-09 10:54:00,71.8,68.7,29.74,SE,135,3.1,6.9,90,0.00,OVC,,0.05,WeatherDisplay:10.37,2013-09-09 15:54:00,
2013-09-09 10:59:00,72.0,68.9,29.74,ESE,112,1.1,3.5,90,0.00,OVC,,0.05,WeatherDisplay:10.37,2013-09-09 15:59:00,
2013-09-09 11:04:00,72.0,68.9,29.74,ESE,112,1.6,2.7,90,0.00,OVC,,0.05,WeatherDisplay:10.37,2013-09-09 16:04:00,
2013-09-09 11:09:00,72.0,68.9,29.74,East,90,2.4,3.5,90,0.00,OVC,,0.05,WeatherDisplay:10.37,2013-09-09 16:09:00,
2013-09-09 11:14:00,72.1,69.0,29.73,SE,135,0.0,0.0,90,0.00,OVC,,0.05,WeatherDisplay:10.37,2013-09-09 16:14:00,
2013-09-09 11:19:00,72.1,69.0,29.73,SE,135,1.5,3.5,90,0.00,OVC,,0.05,WeatherDisplay:10.37,2013-09-09 16:19:00,
2013-09-09 11:24:00,72.1,69.0,29.72,SSE,158,2.4,2.7,90,0.00,OVC,,0.05,WeatherDisplay:10.37,2013-09-09 16:24:00,
2013-09-09 11:29:00,72.5,69.4,29.72,NE,45,2.5,2.7,90,0.00,OVC,,0.05,WeatherDisplay:10.37,2013-09-09 16:29:00,
2013-09-09 11:34:00,72.5,69.4,29.72,ESE,112,3.3,4.7,90,0.00,OVC,,0.05,WeatherDisplay:10.37,2013-09-09 16:34:00,
2013-09-09 11:39:00,72.3,69.2,29.72,SE,135,2.5,3.5,90,0.00,OVC,,0.05,WeatherDisplay:10.37,2013-09-09 16:39:00,
2013-09-09 11:44:00,72.3,69.2,29.72,SSE,158,1.8,2.3,90,0.00,OVC,,0.05,WeatherDisplay:10.37,2013-09-09 16:44:00,
2013-09-09 11:49:00,72.5,69.4,29.72,SSE,156,2.0,4.0,90,0.00,OVC,OVC,0.05,WeatherDisplay:10.37,2013-09-09 16:49:00,
2013-09-09 17:12:00,91.2,74.9,29.64,South,180,6.9,6.9,59,0.00,OVC,,0.05,WeatherDisplay:10.37,2013-09-09 22:12:00,
2013-09-09 17:17:00,93.6,75.5,29.64,West,270,3.7,4.6,56,0.00,RA,,0.05,WeatherDisplay:10.37,2013-09-09 22:17:00,
2013-09-09 17:22:00,95.2,75.9,29.64,WSW,248,2.2,5.8,54,0.00,RA,,0.05,WeatherDisplay:10.37,2013-09-09 22:22:00,
2013-09-09 17:27:00,95.5,75.6,29.64,SSW,202,3.3,4.6,53,0.00,CLR,,0.05,WeatherDisplay:10.37,2013-09-09 22:27:00,
2013-09-09 17:32:00,95.4,76.1,29.64,WSW,248,2.7,4.6,54,0.00,CLR,,0.05,WeatherDisplay:10.37,2013-09-09 22:32:00,
2013-09-09 17:37:00,95.9,76.6,29.64,West,270,2.7,3.5,54,0.00,CLR,,0.05,WeatherDisplay:10.37,2013-09-09 22:37:00,
2013-09-09 17:42:00,95.5,75.6,29.64,WNW,292,2.1,3.2,53,0.00,CLR,,0.05,WeatherDisplay:10.37,2013-09-09 22:42:00,
2013-09-09 17:47:00,95.7,75.8,29.64,WSW,248,2.1,4.6,53,0.00,CLR,,0.05,WeatherDisplay:10.37,2013-09-09 22:47:00,
2013-09-09 17:52:00,96.1,76.2,29.64,NW,315,2.9,3.5,53,0.00,CLR,,0.05,WeatherDisplay:10.37,2013-09-09 22:52:00,
2013-09-09 17:57:00,96.1,76.2,29.64,ESE,112,0.0,0.0,53,0.00,CLR,,0.05,WeatherDisplay:10.37,2013-09-09 22:57:00,
2013-09-09 18:02:00,95.9,76.6,29.65,West,270,2.2,2.3,54,0.00,CLR,,0.05,WeatherDisplay:10.37,2013-09-09 23:02:00,
2013-09-09 18:07:00,96.1,76.2,29.65,WNW,292,1.5,1.5,53,0.00,CLR,,0.05,WeatherDisplay:10.37,2013-09-09 23:07:00,
2013-09-09 18:12:00,94.1,75.5,29.65,WSW,248,0.0,1.2,55,0.00,CLR,,0.05,WeatherDisplay:10.37,2013-09-09 23:12:00,
2013-09-09 18:17:00,95.2,76.5,29.65,North,360,0.0,0.0,55,0.00,CLR,,0.05,WeatherDisplay:10.37,2013-09-09 23:17:00,
2013-09-09 18:22:00,94.1,75.5,29.65,SSW,202,0.0,0.0,55,0.00,CLR,,0.05,WeatherDisplay:10.37,2013-09-09 23:22:00,
2013-09-09 18:27:00,93.0,75.0,29.65,South,180,0.0,0.0,56,0.00,CLR,,0.05,WeatherDisplay:10.37,2013-09-09 23:27:00,
2013-09-09 18:32:00,92.1,74.7,29.65,SSW,202,0.0,0.0,57,0.00,CLR,,0.05,WeatherDisplay:10.37,2013-09-09 23:32:00,
2013-09-09 18:37:00,90.3,73.5,29.65,South,180,0.0,0.0,58,0.00,CLR,,0.05,WeatherDisplay:10.37,2013-09-09 23:37:00,
2013-09-09 18:42:00,90.5,74.2,29.65,SSW,202,0.0,0.0,59,0.00,CLR,,0.05,WeatherDisplay:10.37,2013-09-09 23:42:00,
2013-09-09 18:47:00,90.1,73.8,29.65,South,180,0.0,0.0,59,0.00,CLR,,0.05,WeatherDisplay:10.37,2013-09-09 23:47:00,
2013-09-09 18:52:00,89.6,73.4,29.65,SSW,202,0.0,0.0,59,0.00,CLR,,0.05,WeatherDisplay:10.37,2013-09-09 23:52:00,
2013-09-09 18:57:00,89.2,73.0,29.65,SW,225,0.0,0.0,59,0.00,CLR,,0.05,WeatherDisplay:10.37,2013-09-09 23:57:00,
2013-09-09 19:02:00,88.5,72.3,29.66,SSW,202,0.0,0.0,59,0.00,SCT,,0.05,WeatherDisplay:10.37,2013-09-10 00:02:00,
2013-09-09 19:07:00,87.8,72.2,29.66,SW,225,0.0,0.0,60,0.00,SCT,,0.05,WeatherDisplay:10.37,2013-09-10 00:07:00,
2013-09-09 19:12:00,87.3,71.7,29.66,South,180,0.0,0.0,60,0.00,SCT,,0.05,WeatherDisplay:10.37,2013-09-10 00:12:00,
2013-09-09 19:17:00,86.5,71.9,29.66,South,180,0.0,0.0,62,0.00,SCT,,0.05,WeatherDisplay:10.37,2013-09-10 00:17:00,
2013-09-09 19:22:00,86.2,72.1,29.66,SSE,158,0.0,0.0,63,0.00,SCT,,0.05,WeatherDisplay:10.37,2013-09-10 00:22:00,
2013-09-09 19:27:00,85.6,72.0,29.66,SSE,158,0.0,0.0,64,0.00,SCT,,0.05,WeatherDisplay:10.37,2013-09-10 00:27:00,
2013-09-09 19:32:00,84.7,71.6,29.66,SSE,158,0.0,0.0,65,0.00,SCT,,0.05,WeatherDisplay:10.37,2013-09-10 00:32:00,
2013-09-09 19:37:00,84.0,71.4,29.66,SSE,158,0.0,0.0,66,0.00,SCT,,0.05,WeatherDisplay:10.37,2013-09-10 00:37:00,
2013-09-09 19:42:00,83.5,71.4,29.66,SSE,158,0.0,0.0,67,0.00,CLR,,0.05,WeatherDisplay:10.37,2013-09-10 00:42:00,
2013-09-09 19:47:00,82.9,71.3,29.66,SSE,158,0.0,0.0,68,0.00,CLR,,0.05,WeatherDisplay:10.37,2013-09-10 00:47:00,
2013-09-09 19:52:00,82.8,71.2,29.67,SSE,158,0.0,0.0,68,0.00,CLR,,0.05,WeatherDisplay:10.37,2013-09-10 00:52:00,
2013-09-09 19:57:00,82.2,71.0,29.67,South,180,0.0,0.0,69,0.00,CLR,,0.05,WeatherDisplay:10.37,2013-09-10 00:57:00,
2013-09-09 20:02:00,81.5,70.3,29.68,SSW,202,2.3,3.5,69,0.00,SCT,,0.05,WeatherDisplay:10.37,2013-09-10 01:02:00,
2013-09-09 20:07:00,81.5,70.3,29.68,NNE,22,1.7,3.2,69,0.00,SCT,,0.05,WeatherDisplay:10.37,2013-09-10 01:07:00,
2013-09-09 20:12:00,81.1,70.4,29.69,NE,45,2.1,2.3,70,0.00,SCT,,0.05,WeatherDisplay:10.37,2013-09-10 01:12:00,
2013-09-09 20:17:00,80.6,70.3,29.69,East,90,1.1,2.3,71,0.00,SCT,,0.05,WeatherDisplay:10.37,2013-09-10 01:17:00,
2013-09-09 20:22:00,80.1,70.3,29.69,NE,45,2.6,4.6,72,0.00,SCT,,0.05,WeatherDisplay:10.37,2013-09-10 01:22:00,
2013-09-09 20:27:00,79.5,70.1,29.70,North,360,1.8,2.3,73,0.00,SCT,,0.05,WeatherDisplay:10.37,2013-09-10 01:27:00,
2013-09-09 20:32:00,79.2,69.8,29.70,SE,135,1.7,2.3,73,0.00,BKN,,0.05,WeatherDisplay:10.37,2013-09-10 01:32:00,
2013-09-09 20:37:00,78.8,69.8,29.71,ESE,112,2.3,3.5,74,0.00,BKN,,0.05,WeatherDisplay:10.37,2013-09-10 01:37:00,
2013-09-09 20:42:00,78.3,69.7,29.71,NNE,22,0.5,3.5,75,0.00,SCT,,0.05,WeatherDisplay:10.37,2013-09-10 01:42:00,
2013-09-09 20:47:00,78.1,69.5,29.71,SE,135,1.6,3.5,75,0.00,SCT,,0.05,WeatherDisplay:10.37,2013-09-10 01:47:00,
2013-09-09 20:52:00,77.7,69.5,29.72,ENE,68,3.3,3.3,76,0.00,SCT,,0.05,WeatherDisplay:10.37,2013-09-10 01:52:00,
2013-09-09 20:57:00,77.5,69.3,29.72,NW,315,3.1,4.6,76,0.00,SCT,,0.05,WeatherDisplay:10.37,2013-09-10 01:57:00,
2013-09-09 21:02:00,77.4,69.2,29.72,ESE,112,1.5,2.3,76,0.00,SCT,,0.05,WeatherDisplay:10.37,2013-09-10 02:02:00,
2013-09-09 21:07:00,77.2,69.0,29.72,SSE,158,0.8,1.2,76,0.00,SCT,,0.05,WeatherDisplay:10.37,2013-09-10 02:07:00,
2013-09-09 21:12:00,76.8,69.0,29.73,SE,135,0.0,1.2,77,0.00,BKN,,0.05,WeatherDisplay:10.37,2013-09-10 02:12:00,
2013-09-09 21:18:00,76.6,68.8,29.73,SE,135,0.0,0.0,77,0.00,BKN,,0.05,WeatherDisplay:10.37,2013-09-10 02:18:00,
2013-09-09 21:23:00,76.3,68.9,29.73,South,180,0.0,0.0,78,0.00,OVC,,0.05,WeatherDisplay:10.37,2013-09-10 02:23:00,
2013-09-09 21:28:00,76.1,68.7,29.73,NNE,22,0.0,1.2,78,0.00,OVC,,0.05,WeatherDisplay:10.37,2013-09-10 02:28:00,
2013-09-09 21:33:00,75.9,68.9,29.73,SSE,158,0.0,0.0,79,0.00,OVC,,0.05,WeatherDisplay:10.37,2013-09-10 02:33:00,
2013-09-09 21:38:00,75.6,69.0,29.74,South,180,0.0,0.0,80,0.00,OVC,,0.05,WeatherDisplay:10.37,2013-09-10 02:38:00,
2013-09-09 21:43:00,75.4,68.8,29.74,SSW,202,0.0,0.0,80,0.00,BKN,,0.05,WeatherDisplay:10.37,2013-09-10 02:43:00,
2013-09-09 21:48:00,75.2,69.0,29.74,South,180,0.0,0.0,81,0.00,BKN,,0.05,WeatherDisplay:10.37,2013-09-10 02:48:00,
2013-09-09 21:53:00,74.8,68.9,29.74,SW,225,0.0,0.0,82,0.00,BKN,,0.05,WeatherDisplay:10.37,2013-09-10 02:53:00,
2013-09-09 21:58:00,74.7,69.2,29.74,South,180,0.0,0.0,83,0.00,BKN,,0.05,WeatherDisplay:10.37,2013-09-10 02:58:00,
2013-09-09 22:03:00,74.3,68.8,29.75,South,180,0.0,0.0,83,0.00,BKN,,0.05,WeatherDisplay:10.37,2013-09-10 03:03:00,
2013-09-09 22:08:00,74.1,68.6,29.75,South,180,0.0,0.0,83,0.00,BKN,,0.05,WeatherDisplay:10.37,2013-09-10 03:08:00,
2013-09-09 22:13:00,74.1,69.0,29.75,South,180,0.0,0.0,84,0.00,CLR,,0.05,WeatherDisplay:10.37,2013-09-10 03:13:00,
2013-09-09 22:18:00,74.1,69.3,29.75,SSW,202,0.0,0.0,85,0.00,CLR,,0.05,WeatherDisplay:10.37,2013-09-10 03:18:00,
2013-09-09 22:23:00,73.9,69.1,29.75,South,180,0.0,0.0,85,0.00,CLR,,0.05,WeatherDisplay:10.37,2013-09-10 03:23:00,
2013-09-09 22:28:00,73.8,69.3,29.75,South,180,0.0,0.0,86,0.00,CLR,,0.05,WeatherDisplay:10.37,2013-09-10 03:28:00,
2013-09-09 22:33:00,73.8,69.3,29.75,South,180,0.0,0.0,86,0.00,CLR,,0.05,WeatherDisplay:10.37,2013-09-10 03:33:00,
2013-09-09 22:38:00,73.6,69.2,29.75,South,180,0.0,0.0,86,0.00,CLR,,0.05,WeatherDisplay:10.37,2013-09-10 03:38:00,
2013-09-09 22:43:00,73.4,69.3,29.75,SSE,158,0.0,0.0,87,0.00,CLR,,0.05,WeatherDisplay:10.37,2013-09-10 03:43:00,
2013-09-09 22:48:00,73.2,69.1,29.75,South,180,0.0,0.0,87,0.00,CLR,,0.05,WeatherDisplay:10.37,2013-09-10 03:48:00,
2013-09-09 22:53:00,73.2,69.4,29.75,South,180,0.0,0.0,88,0.00,CLR,,0.05,WeatherDisplay:10.37,2013-09-10 03:53:00,
2013-09-09 22:58:00,72.9,69.1,29.75,South,180,0.0,0.0,88,0.00,CLR,,0.05,WeatherDisplay:10.37,2013-09-10 03:58:00,
2013-09-09 23:01:00,72.7,69.3,29.75,South,180,0.0,0.0,89,0.00,CLR,,0.05,WeatherDisplay:10.37,2013-09-10 04:01:00,
2013-09-09 23:02:00,72.7,69.3,29.75,South,180,0.0,0.0,89,0.00,CLR,,0.05,WeatherDisplay:10.37,2013-09-10 04:02:00,
2013-09-09 23:03:00,72.7,69.3,29.75,South,180,0.0,0.0,89,0.00,CLR,,0.05,WeatherDisplay:10.37,2013-09-10 04:03:00,
2013-09-09 23:08:00,72.3,68.9,29.75,South,180,0.0,0.0,89,0.00,CLR,,0.05,WeatherDisplay:10.37,2013-09-10 04:08:00,
2013-09-09 23:13:00,72.3,68.9,29.76,WSW,248,0.0,0.0,89,0.00,CLR,,0.05,WeatherDisplay:10.37,2013-09-10 04:13:00,
2013-09-09 23:18:00,72.1,69.0,29.76,South,180,0.0,0.0,90,0.00,CLR,,0.05,WeatherDisplay:10.37,2013-09-10 04:18:00,
2013-09-09 23:23:00,72.1,69.6,29.76,SW,225,0.0,0.0,92,0.00,SCT,,0.05,WeatherDisplay:10.37,2013-09-10 04:23:00,
2013-09-09 23:28:00,72.1,70.0,29.76,South,180,0.0,0.0,93,0.00,SCT,,0.05,WeatherDisplay:10.37,2013-09-10 04:28:00,
2013-09-09 23:33:00,72.0,70.2,29.76,West,270,2.7,3.7,94,0.00,SCT,,0.05,WeatherDisplay:10.37,2013-09-10 04:33:00,
2013-09-09 23:38:00,72.1,70.3,29.76,WSW,248,2.0,4.7,94,0.00,SCT,,0.05,WeatherDisplay:10.37,2013-09-10 04:38:00,
2013-09-09 23:43:00,72.1,70.0,29.76,SW,225,2.9,3.5,93,0.00,CLR,,0.05,WeatherDisplay:10.37,2013-09-10 04:43:00,
2013-09-09 23:48:00,72.1,69.3,29.76,West,270,3.0,3.5,91,0.00,CLR,,0.05,WeatherDisplay:10.37,2013-09-10 04:48:00,
2013-09-09 23:53:00,72.3,69.5,29.76,SW,225,2.2,2.3,91,0.00,CLR,,0.05,WeatherDisplay:10.37,2013-09-10 04:53:00,
2013-09-09 23:58:00,72.5,68.7,29.76,West,270,3.8,4.2,88,0.00,CLR,,0.05,WeatherDisplay:10.37,2013-09-10 04:58:00,